sensor_id;sensor_type;location;lat;lon;timestamp;pressure;altitude;pressure_sealevel;temperature;humidity
24390;BME280;12510;56.468;-3.004;2023-02-20T00:00:58;99748.34;;;19.62;76.18
24390;BME280;12510;56.468;-3.004;2023-02-20T00:03:24;99746.47;;;19.37;76.97
24390;BME280;12510;56.468;-3.004;2023-02-20T00:05:51;99757.84;;;19.25;78.16
24390;BME280;12510;56.468;-3.004;2023-02-20T00:08:17;99757.63;;;20.65;72.46
24390;BME280;12510;56.468;-3.004;2023-02-20T00:10:44;99768.41;;;20.21;73.81
24390;BME280;12510;56.468;-3.004;2023-02-20T00:13:10;99764.59;;;20.10;73.05
24390;BME280;12510;56.468;-3.004;2023-02-20T00:15:37;99762.56;;;20.68;71.38
24390;BME280;12510;56.468;-3.004;2023-02-20T00:18:03;99749.91;;;20.94;69.10
24390;BME280;12510;56.468;-3.004;2023-02-20T00:20:30;99730.25;;;21.00;68.03
24390;BME280;12510;56.468;-3.004;2023-02-20T00:22:58;99721.31;;;19.76;74.60
24390;BME280;12510;56.468;-3.004;2023-02-20T00:25:24;99702.16;;;20.23;71.23
24390;BME280;12510;56.468;-3.004;2023-02-20T00:27:51;99716.63;;;20.16;71.23
24390;BME280;12510;56.468;-3.004;2023-02-20T00:30:20;99710.81;;;19.82;72.04
24390;BME280;12510;56.468;-3.004;2023-02-20T00:32:49;99703.66;;;18.93;73.80
24390;BME280;12510;56.468;-3.004;2023-02-20T00:35:17;99690.47;;;19.81;73.63
24390;BME280;12510;56.468;-3.004;2023-02-20T00:37:44;99692.19;;;20.49;70.34
24390;BME280;12510;56.468;-3.004;2023-02-20T00:40:12;99693.84;;;19.95;70.87
24390;BME280;12510;56.468;-3.004;2023-02-20T00:42:39;99697.34;;;19.13;78.98
24390;BME280;12510;56.468;-3.004;2023-02-20T00:45:06;99703.41;;;18.49;79.65
24390;BME280;12510;56.468;-3.004;2023-02-20T00:47:32;99697.28;;;18.94;80.48
24390;BME280;12510;56.468;-3.004;2023-02-20T00:49:59;99700.59;;;19.21;78.95
24390;BME280;12510;56.468;-3.004;2023-02-20T00:52:25;99691.09;;;19.83;76.71
24390;BME280;12510;56.468;-3.004;2023-02-20T00:54:52;99695.03;;;19.73;77.30
24390;BME280;12510;56.468;-3.004;2023-02-20T00:57:19;99704.25;;;19.27;78.01
24390;BME280;12510;56.468;-3.004;2023-02-20T00:59:45;99699.16;;;19.19;79.71
24390;BME280;12510;56.468;-3.004;2023-02-20T01:02:11;99702.00;;;18.85;82.35
24390;BME280;12510;56.468;-3.004;2023-02-20T01:04:38;99703.53;;;19.64;78.58
24390;BME280;12510;56.468;-3.004;2023-02-20T01:07:04;99700.72;;;19.33;80.26
24390;BME280;12510;56.468;-3.004;2023-02-20T01:09:31;99678.84;;;19.68;76.11
24390;BME280;12510;56.468;-3.004;2023-02-20T01:11:57;99688.28;;;19.46;79.18
24390;BME280;12510;56.468;-3.004;2023-02-20T01:14:24;99691.72;;;19.53;79.59
24390;BME280;12510;56.468;-3.004;2023-02-20T01:16:52;99676.13;;;20.68;73.15
24390;BME280;12510;56.468;-3.004;2023-02-20T01:19:19;99665.28;;;19.70;78.02
24390;BME280;12510;56.468;-3.004;2023-02-20T01:21:46;99662.50;;;19.58;79.45
24390;BME280;12510;56.468;-3.004;2023-02-20T01:24:17;99650.88;;;19.96;77.03
24390;BME280;12510;56.468;-3.004;2023-02-20T01:26:48;99654.88;;;19.62;79.57
24390;BME280;12510;56.468;-3.004;2023-02-20T01:29:15;99654.91;;;19.80;78.21
24390;BME280;12510;56.468;-3.004;2023-02-20T01:31:49;99661.38;;;18.90;84.02
24390;BME280;12510;56.468;-3.004;2023-02-20T01:34:17;99657.22;;;19.01;82.16
24390;BME280;12510;56.468;-3.004;2023-02-20T01:36:48;99646.50;;;18.69;82.96
24390;BME280;12510;56.468;-3.004;2023-02-20T01:39:17;99647.31;;;19.33;79.84
24390;BME280;12510;56.468;-3.004;2023-02-20T01:41:46;99652.03;;;18.74;84.94
24390;BME280;12510;56.468;-3.004;2023-02-20T01:44:25;99633.41;;;18.99;81.16
24390;BME280;12510;56.468;-3.004;2023-02-20T01:46:54;99641.16;;;19.33;82.96
24390;BME280;12510;56.468;-3.004;2023-02-20T01:52:21;99633.13;;;18.75;84.71
24390;BME280;12510;56.468;-3.004;2023-02-20T01:57:24;99631.75;;;18.66;86.04
24390;BME280;12510;56.468;-3.004;2023-02-20T01:59:53;99625.97;;;20.33;78.71
24390;BME280;12510;56.468;-3.004;2023-02-20T02:02:22;99627.44;;;19.54;81.14
24390;BME280;12510;56.468;-3.004;2023-02-20T02:04:49;99631.19;;;19.90;81.03
24390;BME280;12510;56.468;-3.004;2023-02-20T02:07:16;99620.19;;;18.47;84.33
24390;BME280;12510;56.468;-3.004;2023-02-20T02:09:54;99619.34;;;19.61;82.43
24390;BME280;12510;56.468;-3.004;2023-02-20T02:12:28;99618.63;;;18.65;87.28
24390;BME280;12510;56.468;-3.004;2023-02-20T02:14:55;99626.63;;;18.65;91.10
24390;BME280;12510;56.468;-3.004;2023-02-20T02:17:58;99618.66;;;19.22;87.57
24390;BME280;12510;56.468;-3.004;2023-02-20T02:37:28;99613.63;;;18.75;89.10
24390;BME280;12510;56.468;-3.004;2023-02-20T02:40:07;99609.66;;;18.07;96.61
24390;BME280;12510;56.468;-3.004;2023-02-20T02:42:50;99608.91;;;18.77;92.43
24390;BME280;12510;56.468;-3.004;2023-02-20T02:48:00;99613.41;;;18.76;95.72
24390;BME280;12510;56.468;-3.004;2023-02-20T02:50:35;99578.56;;;20.09;86.04
24390;BME280;12510;56.468;-3.004;2023-02-20T02:53:04;99597.06;;;19.49;87.98
24390;BME280;12510;56.468;-3.004;2023-02-20T02:55:32;99592.34;;;19.00;88.93
24390;BME280;12510;56.468;-3.004;2023-02-20T02:58:03;99591.00;;;18.07;98.65
24390;BME280;12510;56.468;-3.004;2023-02-20T03:00:46;99591.88;;;19.98;88.68
24390;BME280;12510;56.468;-3.004;2023-02-20T03:03:29;99601.28;;;19.38;90.76
24390;BME280;12510;56.468;-3.004;2023-02-20T03:08:51;99600.06;;;18.51;97.16
24390;BME280;12510;56.468;-3.004;2023-02-20T03:11:25;99589.94;;;18.60;98.78
24390;BME280;12510;56.468;-3.004;2023-02-20T03:16:47;99584.50;;;19.56;91.14
24390;BME280;12510;56.468;-3.004;2023-02-20T03:19:21;99601.13;;;18.75;97.85
24390;BME280;12510;56.468;-3.004;2023-02-20T03:21:50;99601.78;;;19.03;97.54
24390;BME280;12510;56.468;-3.004;2023-02-20T03:24:20;99591.00;;;18.84;97.28
24390;BME280;12510;56.468;-3.004;2023-02-20T03:26:49;99590.16;;;19.85;90.98
24390;BME280;12510;56.468;-3.004;2023-02-20T03:29:22;99606.25;;;19.34;95.65
24390;BME280;12510;56.468;-3.004;2023-02-20T03:32:00;99610.94;;;18.43;98.85
24390;BME280;12510;56.468;-3.004;2023-02-20T03:34:49;99595.47;;;19.48;96.10
24390;BME280;12510;56.468;-3.004;2023-02-20T03:37:38;99596.72;;;19.64;94.42
24390;BME280;12510;56.468;-3.004;2023-02-20T03:40:27;99592.94;;;19.71;92.04
24390;BME280;12510;56.468;-3.004;2023-02-20T03:43:17;99593.91;;;20.33;93.70
24390;BME280;12510;56.468;-3.004;2023-02-20T03:46:05;99593.69;;;19.60;96.18
24390;BME280;12510;56.468;-3.004;2023-02-20T03:48:54;99590.09;;;19.66;95.97
24390;BME280;12510;56.468;-3.004;2023-02-20T03:51:23;99591.56;;;19.00;100.00
24390;BME280;12510;56.468;-3.004;2023-02-20T03:54:18;99585.78;;;19.03;100.00
24390;BME280;12510;56.468;-3.004;2023-02-20T03:56:49;99582.06;;;19.29;100.00
24390;BME280;12510;56.468;-3.004;2023-02-20T03:59:23;99572.31;;;19.41;99.32
24390;BME280;12510;56.468;-3.004;2023-02-20T04:01:54;99564.84;;;21.97;85.29
24390;BME280;12510;56.468;-3.004;2023-02-20T04:04:30;99569.09;;;20.98;87.02
24390;BME280;12510;56.468;-3.004;2023-02-20T04:07:00;99571.59;;;19.90;93.30
24390;BME280;12510;56.468;-3.004;2023-02-20T04:09:32;99582.63;;;19.56;100.00
24390;BME280;12510;56.468;-3.004;2023-02-20T04:12:13;99573.03;;;19.49;97.96
24390;BME280;12510;56.468;-3.004;2023-02-20T04:14:43;99575.66;;;18.80;100.00
24390;BME280;12510;56.468;-3.004;2023-02-20T04:17:14;99593.75;;;17.73;100.00
24390;BME280;12510;56.468;-3.004;2023-02-20T04:19:43;99606.44;;;16.64;100.00
24390;BME280;12510;56.468;-3.004;2023-02-20T04:22:14;99599.19;;;16.38;100.00
24390;BME280;12510;56.468;-3.004;2023-02-20T04:27:20;99607.75;;;16.27;100.00
24390;BME280;12510;56.468;-3.004;2023-02-20T04:29:52;99610.25;;;16.41;100.00
24390;BME280;12510;56.468;-3.004;2023-02-20T04:32:19;99613.13;;;16.40;100.00
24390;BME280;12510;56.468;-3.004;2023-02-20T04:34:46;99607.22;;;16.58;100.00
24390;BME280;12510;56.468;-3.004;2023-02-20T04:37:16;99603.72;;;16.44;100.00
24390;BME280;12510;56.468;-3.004;2023-02-20T04:39:45;99611.44;;;17.34;100.00
24390;BME280;12510;56.468;-3.004;2023-02-20T04:42:13;99618.50;;;16.67;100.00
24390;BME280;12510;56.468;-3.004;2023-02-20T04:44:40;99611.84;;;16.22;100.00
24390;BME280;12510;56.468;-3.004;2023-02-20T04:47:14;99619.75;;;16.78;100.00
24390;BME280;12510;56.468;-3.004;2023-02-20T04:49:42;99622.91;;;17.28;100.00
24390;BME280;12510;56.468;-3.004;2023-02-20T04:52:11;99600.97;;;15.75;100.00
24390;BME280;12510;56.468;-3.004;2023-02-20T04:54:38;99612.22;;;16.26;100.00
24390;BME280;12510;56.468;-3.004;2023-02-20T04:57:05;99603.91;;;16.36;100.00
24390;BME280;12510;56.468;-3.004;2023-02-20T04:59:32;99604.13;;;15.92;100.00
24390;BME280;12510;56.468;-3.004;2023-02-20T05:01:58;99615.38;;;16.50;100.00
24390;BME280;12510;56.468;-3.004;2023-02-20T05:04:27;99608.31;;;16.15;100.00
24390;BME280;12510;56.468;-3.004;2023-02-20T05:06:54;99601.63;;;17.41;100.00
24390;BME280;12510;56.468;-3.004;2023-02-20T05:09:21;99607.47;;;16.08;100.00
24390;BME280;12510;56.468;-3.004;2023-02-20T05:11:48;99603.09;;;18.09;100.00
24390;BME280;12510;56.468;-3.004;2023-02-20T05:14:14;99586.16;;;18.42;100.00
24390;BME280;12510;56.468;-3.004;2023-02-20T05:16:42;99594.34;;;18.41;100.00
24390;BME280;12510;56.468;-3.004;2023-02-20T05:19:11;99588.69;;;17.52;100.00
24390;BME280;12510;56.468;-3.004;2023-02-20T05:21:40;99592.50;;;16.55;100.00
24390;BME280;12510;56.468;-3.004;2023-02-20T05:24:25;99598.34;;;17.13;100.00
24390;BME280;12510;56.468;-3.004;2023-02-20T05:26:54;99600.19;;;16.99;100.00
24390;BME280;12510;56.468;-3.004;2023-02-20T05:29:21;99582.38;;;16.99;100.00
24390;BME280;12510;56.468;-3.004;2023-02-20T05:31:48;99595.63;;;17.66;100.00
24390;BME280;12510;56.468;-3.004;2023-02-20T05:34:14;99578.06;;;17.25;100.00
24390;BME280;12510;56.468;-3.004;2023-02-20T05:36:41;99592.59;;;16.96;100.00
24390;BME280;12510;56.468;-3.004;2023-02-20T05:39:07;99585.63;;;16.88;100.00
24390;BME280;12510;56.468;-3.004;2023-02-20T05:41:33;99577.84;;;16.93;100.00
24390;BME280;12510;56.468;-3.004;2023-02-20T05:44:00;99591.63;;;16.35;100.00
24390;BME280;12510;56.468;-3.004;2023-02-20T05:46:26;99577.06;;;16.99;100.00
24390;BME280;12510;56.468;-3.004;2023-02-20T05:48:53;99606.31;;;17.46;100.00
24390;BME280;12510;56.468;-3.004;2023-02-20T05:51:28;99598.31;;;16.92;100.00
24390;BME280;12510;56.468;-3.004;2023-02-20T05:53:55;99601.63;;;17.21;100.00
24390;BME280;12510;56.468;-3.004;2023-02-20T05:56:22;99599.13;;;17.13;100.00
24390;BME280;12510;56.468;-3.004;2023-02-20T05:58:49;99603.03;;;17.44;100.00
24390;BME280;12510;56.468;-3.004;2023-02-20T06:01:21;99604.41;;;17.67;100.00
24390;BME280;12510;56.468;-3.004;2023-02-20T06:03:48;99614.72;;;17.36;100.00
24390;BME280;12510;56.468;-3.004;2023-02-20T06:06:16;99617.94;;;17.58;100.00
24390;BME280;12510;56.468;-3.004;2023-02-20T06:08:42;99612.03;;;17.63;100.00
24390;BME280;12510;56.468;-3.004;2023-02-20T06:11:10;99625.34;;;17.50;100.00
24390;BME280;12510;56.468;-3.004;2023-02-20T06:13:42;99626.31;;;17.96;100.00
24390;BME280;12510;56.468;-3.004;2023-02-20T06:16:09;99615.72;;;18.34;100.00
24390;BME280;12510;56.468;-3.004;2023-02-20T06:18:40;99648.63;;;18.01;100.00
24390;BME280;12510;56.468;-3.004;2023-02-20T06:21:10;99622.66;;;17.63;100.00
24390;BME280;12510;56.468;-3.004;2023-02-20T06:23:37;99629.66;;;17.57;100.00
24390;BME280;12510;56.468;-3.004;2023-02-20T06:26:05;99641.59;;;18.14;100.00
24390;BME280;12510;56.468;-3.004;2023-02-20T06:28:32;99645.28;;;18.26;100.00
24390;BME280;12510;56.468;-3.004;2023-02-20T06:30:58;99640.28;;;17.71;100.00
24390;BME280;12510;56.468;-3.004;2023-02-20T06:33:25;99652.13;;;18.54;100.00
24390;BME280;12510;56.468;-3.004;2023-02-20T06:35:51;99644.88;;;18.22;100.00
24390;BME280;12510;56.468;-3.004;2023-02-20T06:38:18;99648.66;;;17.74;100.00
24390;BME280;12510;56.468;-3.004;2023-02-20T06:40:44;99645.75;;;18.55;100.00
24390;BME280;12510;56.468;-3.004;2023-02-20T06:43:11;99660.53;;;17.52;100.00
24390;BME280;12510;56.468;-3.004;2023-02-20T06:45:37;99666.72;;;17.39;100.00
24390;BME280;12510;56.468;-3.004;2023-02-20T06:48:03;99673.81;;;17.99;100.00
24390;BME280;12510;56.468;-3.004;2023-02-20T06:50:30;99677.53;;;17.78;100.00
24390;BME280;12510;56.468;-3.004;2023-02-20T06:52:56;99674.97;;;18.23;100.00
24390;BME280;12510;56.468;-3.004;2023-02-20T06:55:23;99668.19;;;18.34;100.00
24390;BME280;12510;56.468;-3.004;2023-02-20T06:57:49;99678.00;;;18.40;100.00
24390;BME280;12510;56.468;-3.004;2023-02-20T07:00:17;99682.44;;;17.94;100.00
24390;BME280;12510;56.468;-3.004;2023-02-20T07:02:43;99681.56;;;18.20;100.00
24390;BME280;12510;56.468;-3.004;2023-02-20T07:05:11;99691.56;;;18.32;100.00
24390;BME280;12510;56.468;-3.004;2023-02-20T07:07:37;99677.59;;;19.71;100.00
24390;BME280;12510;56.468;-3.004;2023-02-20T07:10:04;99676.19;;;19.68;100.00
24390;BME280;12510;56.468;-3.004;2023-02-20T07:12:32;99692.56;;;18.37;100.00
24390;BME280;12510;56.468;-3.004;2023-02-20T07:14:58;99693.78;;;18.41;100.00
24390;BME280;12510;56.468;-3.004;2023-02-20T07:17:25;99691.84;;;18.69;100.00
24390;BME280;12510;56.468;-3.004;2023-02-20T07:19:51;99693.84;;;18.73;100.00
24390;BME280;12510;56.468;-3.004;2023-02-20T07:22:18;99689.47;;;18.86;100.00
24390;BME280;12510;56.468;-3.004;2023-02-20T07:24:49;99696.13;;;18.24;100.00
24390;BME280;12510;56.468;-3.004;2023-02-20T07:27:15;99700.03;;;18.74;100.00
24390;BME280;12510;56.468;-3.004;2023-02-20T07:29:44;99699.47;;;19.61;100.00
24390;BME280;12510;56.468;-3.004;2023-02-20T07:32:13;99702.34;;;18.57;100.00
24390;BME280;12510;56.468;-3.004;2023-02-20T07:34:40;99714.88;;;18.50;100.00
24390;BME280;12510;56.468;-3.004;2023-02-20T07:37:07;99723.38;;;18.26;100.00
24390;BME280;12510;56.468;-3.004;2023-02-20T07:39:33;99707.47;;;18.58;100.00
24390;BME280;12510;56.468;-3.004;2023-02-20T07:42:00;99708.94;;;19.57;100.00
24390;BME280;12510;56.468;-3.004;2023-02-20T07:44:45;99727.66;;;18.93;100.00
24390;BME280;12510;56.468;-3.004;2023-02-20T07:47:14;99727.34;;;18.63;100.00
24390;BME280;12510;56.468;-3.004;2023-02-20T07:49:40;99745.50;;;18.86;100.00
24390;BME280;12510;56.468;-3.004;2023-02-20T07:52:07;99740.16;;;18.86;100.00
24390;BME280;12510;56.468;-3.004;2023-02-20T07:54:33;99732.56;;;19.60;100.00
24390;BME280;12510;56.468;-3.004;2023-02-20T07:56:59;99735.41;;;19.01;100.00
24390;BME280;12510;56.468;-3.004;2023-02-20T07:59:26;99736.84;;;20.12;100.00
24390;BME280;12510;56.468;-3.004;2023-02-20T08:01:52;99743.75;;;19.43;100.00
24390;BME280;12510;56.468;-3.004;2023-02-20T08:04:19;99748.66;;;19.47;100.00
24390;BME280;12510;56.468;-3.004;2023-02-20T08:06:45;99748.88;;;19.70;100.00
24390;BME280;12510;56.468;-3.004;2023-02-20T08:09:12;99763.94;;;19.65;100.00
24390;BME280;12510;56.468;-3.004;2023-02-20T08:11:38;99757.78;;;19.64;100.00
24390;BME280;12510;56.468;-3.004;2023-02-20T08:14:05;99755.00;;;20.28;100.00
24390;BME280;12510;56.468;-3.004;2023-02-20T08:16:32;99756.59;;;19.28;100.00
24390;BME280;12510;56.468;-3.004;2023-02-20T08:18:59;99784.91;;;17.98;100.00
24390;BME280;12510;56.468;-3.004;2023-02-20T08:21:26;99789.97;;;17.80;100.00
24390;BME280;12510;56.468;-3.004;2023-02-20T08:23:53;99789.94;;;18.53;100.00
24390;BME280;12510;56.468;-3.004;2023-02-20T08:26:20;99793.13;;;18.89;100.00
24390;BME280;12510;56.468;-3.004;2023-02-20T08:28:48;99796.47;;;19.87;100.00
24390;BME280;12510;56.468;-3.004;2023-02-20T08:31:15;99793.78;;;18.71;100.00
24390;BME280;12510;56.468;-3.004;2023-02-20T08:33:41;99797.63;;;19.66;100.00
24390;BME280;12510;56.468;-3.004;2023-02-20T08:36:08;99809.34;;;19.97;100.00
24390;BME280;12510;56.468;-3.004;2023-02-20T08:38:36;99787.91;;;20.47;100.00
24390;BME280;12510;56.468;-3.004;2023-02-20T08:41:05;99798.56;;;20.29;100.00
24390;BME280;12510;56.468;-3.004;2023-02-20T08:43:33;99812.69;;;19.21;100.00
24390;BME280;12510;56.468;-3.004;2023-02-20T08:46:00;99809.25;;;20.29;100.00
24390;BME280;12510;56.468;-3.004;2023-02-20T08:48:27;99814.16;;;19.88;100.00
24390;BME280;12510;56.468;-3.004;2023-02-20T08:50:54;99824.16;;;19.60;100.00
24390;BME280;12510;56.468;-3.004;2023-02-20T08:53:20;99827.91;;;19.53;100.00
24390;BME280;12510;56.468;-3.004;2023-02-20T08:55:47;99838.00;;;19.51;100.00
24390;BME280;12510;56.468;-3.004;2023-02-20T08:58:18;99841.63;;;19.95;100.00
24390;BME280;12510;56.468;-3.004;2023-02-20T09:00:45;99847.38;;;20.17;100.00
24390;BME280;12510;56.468;-3.004;2023-02-20T09:03:12;99842.94;;;19.79;100.00
24390;BME280;12510;56.468;-3.004;2023-02-20T09:05:38;99841.56;;;20.27;100.00
24390;BME280;12510;56.468;-3.004;2023-02-20T09:08:05;99850.44;;;19.64;100.00
24390;BME280;12510;56.468;-3.004;2023-02-20T09:10:31;99849.00;;;20.43;100.00
24390;BME280;12510;56.468;-3.004;2023-02-20T09:12:57;99848.94;;;20.94;100.00
24390;BME280;12510;56.468;-3.004;2023-02-20T09:15:24;99847.91;;;20.95;100.00
24390;BME280;12510;56.468;-3.004;2023-02-20T09:17:51;99843.25;;;21.21;97.39
24390;BME280;12510;56.468;-3.004;2023-02-20T09:20:19;99856.13;;;21.61;96.52
24390;BME280;12510;56.468;-3.004;2023-02-20T09:22:47;99859.28;;;21.39;96.72
24390;BME280;12510;56.468;-3.004;2023-02-20T09:25:14;99852.03;;;21.09;98.61
24390;BME280;12510;56.468;-3.004;2023-02-20T09:27:41;99861.53;;;21.24;97.43
24390;BME280;12510;56.468;-3.004;2023-02-20T09:30:08;99867.38;;;21.02;98.01
24390;BME280;12510;56.468;-3.004;2023-02-20T09:32:36;99859.69;;;21.85;94.53
24390;BME280;12510;56.468;-3.004;2023-02-20T09:35:03;99869.63;;;21.36;97.24
24390;BME280;12510;56.468;-3.004;2023-02-20T09:37:29;99871.59;;;21.40;96.84
24390;BME280;12510;56.468;-3.004;2023-02-20T09:39:56;99870.94;;;21.45;96.75
24390;BME280;12510;56.468;-3.004;2023-02-20T09:43:00;99863.25;;;22.21;89.68
24390;BME280;12510;56.468;-3.004;2023-02-20T09:45:19;99849.94;;;24.01;80.89
24390;BME280;12510;56.468;-3.004;2023-02-20T09:48:36;99861.09;;;23.47;81.11
24390;BME280;12510;56.468;-3.004;2023-02-20T09:50:53;99869.72;;;23.08;85.86
24390;BME280;12510;56.468;-3.004;2023-02-20T09:53:22;99882.38;;;22.72;87.26
24390;BME280;12510;56.468;-3.004;2023-02-20T09:55:51;99875.50;;;22.76;86.74
24390;BME280;12510;56.468;-3.004;2023-02-20T09:58:42;99884.41;;;23.30;83.32
24390;BME280;12510;56.468;-3.004;2023-02-20T10:01:16;99886.31;;;23.05;82.05
24390;BME280;12510;56.468;-3.004;2023-02-20T10:06:20;99882.53;;;23.59;80.80
24390;BME280;12510;56.468;-3.004;2023-02-20T10:08:48;99884.72;;;22.81;84.39
24390;BME280;12510;56.468;-3.004;2023-02-20T10:11:26;99897.03;;;23.17;85.15
24390;BME280;12510;56.468;-3.004;2023-02-20T10:14:33;99895.22;;;22.70;86.83
24390;BME280;12510;56.468;-3.004;2023-02-20T10:19:49;99905.50;;;22.73;85.33
24390;BME280;12510;56.468;-3.004;2023-02-20T10:22:33;99905.84;;;22.65;86.69
24390;BME280;12510;56.468;-3.004;2023-02-20T10:25:19;99907.59;;;22.36;87.90
24390;BME280;12510;56.468;-3.004;2023-02-20T10:27:52;99914.19;;;22.21;91.15
24390;BME280;12510;56.468;-3.004;2023-02-20T10:30:28;99917.84;;;21.97;92.09
24390;BME280;12510;56.468;-3.004;2023-02-20T10:38:34;99929.41;;;23.51;86.62
24390;BME280;12510;56.468;-3.004;2023-02-20T10:41:20;99927.19;;;22.84;88.85
24390;BME280;12510;56.468;-3.004;2023-02-20T10:43:54;99924.19;;;24.02;83.90
24390;BME280;12510;56.468;-3.004;2023-02-20T10:46:31;99923.59;;;23.42;83.66
24390;BME280;12510;56.468;-3.004;2023-02-20T10:49:00;99928.13;;;23.54;83.72
24390;BME280;12510;56.468;-3.004;2023-02-20T10:51:38;99918.81;;;24.19;80.00
24390;BME280;12510;56.468;-3.004;2023-02-20T10:54:18;99923.84;;;23.70;80.69
24390;BME280;12510;56.468;-3.004;2023-02-20T10:56:58;99924.00;;;23.22;79.10
24390;BME280;12510;56.468;-3.004;2023-02-20T10:59:36;99922.97;;;24.27;72.34
24390;BME280;12510;56.468;-3.004;2023-02-20T11:02:16;99921.06;;;23.65;69.87
24390;BME280;12510;56.468;-3.004;2023-02-20T11:04:51;99916.75;;;23.92;66.01
24390;BME280;12510;56.468;-3.004;2023-02-20T11:07:20;99914.34;;;23.50;64.83
24390;BME280;12510;56.468;-3.004;2023-02-20T11:09:47;99915.53;;;24.00;63.60
24390;BME280;12510;56.468;-3.004;2023-02-20T11:14:54;99912.78;;;24.29;60.44
24390;BME280;12510;56.468;-3.004;2023-02-20T11:17:26;99912.13;;;23.76;61.47
24390;BME280;12510;56.468;-3.004;2023-02-20T11:19:56;99922.13;;;24.09;62.19
24390;BME280;12510;56.468;-3.004;2023-02-20T11:22:43;99916.13;;;24.70;59.16
24390;BME280;12510;56.468;-3.004;2023-02-20T11:27:44;99918.66;;;24.26;59.71
24390;BME280;12510;56.468;-3.004;2023-02-20T11:30:20;99925.75;;;23.17;60.90
24390;BME280;12510;56.468;-3.004;2023-02-20T11:32:48;99927.97;;;23.20;60.76
24390;BME280;12510;56.468;-3.004;2023-02-20T11:37:50;99927.72;;;23.62;60.87
24390;BME280;12510;56.468;-3.004;2023-02-20T11:40:26;99929.63;;;24.58;58.96
24390;BME280;12510;56.468;-3.004;2023-02-20T11:42:54;99934.78;;;24.43;58.24
24390;BME280;12510;56.468;-3.004;2023-02-20T11:45:28;99929.66;;;24.41;57.93
24390;BME280;12510;56.468;-3.004;2023-02-20T11:50:47;99949.84;;;23.93;59.37
24390;BME280;12510;56.468;-3.004;2023-02-20T11:53:29;99943.81;;;24.54;58.16
24390;BME280;12510;56.468;-3.004;2023-02-20T11:58:37;99954.56;;;23.74;59.10
24390;BME280;12510;56.468;-3.004;2023-02-20T12:01:05;99982.53;;;20.96;68.22
24390;BME280;12510;56.468;-3.004;2023-02-20T12:03:33;99977.53;;;20.81;71.64
24390;BME280;12510;56.468;-3.004;2023-02-20T12:08:53;99978.81;;;21.52;71.73
24390;BME280;12510;56.468;-3.004;2023-02-20T12:11:24;99980.84;;;21.38;70.99
24390;BME280;12510;56.468;-3.004;2023-02-20T12:13:53;99980.84;;;21.75;70.39
24390;BME280;12510;56.468;-3.004;2023-02-20T12:19:24;99994.94;;;20.33;73.50
24390;BME280;12510;56.468;-3.004;2023-02-20T12:21:57;99963.00;;;22.54;66.23
24390;BME280;12510;56.468;-3.004;2023-02-20T12:25:00;99971.56;;;23.51;61.11
24390;BME280;12510;56.468;-3.004;2023-02-20T12:35:34;100002.78;;;21.10;72.31
24390;BME280;12510;56.468;-3.004;2023-02-20T12:38:29;100004.28;;;20.49;69.37
24390;BME280;12510;56.468;-3.004;2023-02-20T12:41:54;100024.59;;;18.93;78.93
24390;BME280;12510;56.468;-3.004;2023-02-20T12:47:10;100018.34;;;20.05;76.40
24390;BME280;12510;56.468;-3.004;2023-02-20T13:00:35;99986.81;;;23.09;61.64
24390;BME280;12510;56.468;-3.004;2023-02-20T13:03:13;99998.63;;;23.32;59.18
24390;BME280;12510;56.468;-3.004;2023-02-20T13:05:43;99991.38;;;22.62;62.21
24390;BME280;12510;56.468;-3.004;2023-02-20T13:08:15;99994.28;;;23.07;59.96
24390;BME280;12510;56.468;-3.004;2023-02-20T13:10:55;99998.69;;;22.54;59.68
24390;BME280;12510;56.468;-3.004;2023-02-20T13:13:24;100002.34;;;22.84;60.98
24390;BME280;12510;56.468;-3.004;2023-02-20T13:16:02;100007.75;;;23.19;59.86
24390;BME280;12510;56.468;-3.004;2023-02-20T13:18:38;100002.91;;;23.45;58.54
24390;BME280;12510;56.468;-3.004;2023-02-20T13:21:11;99998.78;;;23.54;57.59
24390;BME280;12510;56.468;-3.004;2023-02-20T13:23:38;100001.84;;;23.87;57.72
24390;BME280;12510;56.468;-3.004;2023-02-20T13:29:11;100013.22;;;23.89;57.74
24390;BME280;12510;56.468;-3.004;2023-02-20T13:34:43;100017.81;;;22.46;61.88
24390;BME280;12510;56.468;-3.004;2023-02-20T13:45:42;100045.97;;;22.67;66.90
24390;BME280;12510;56.468;-3.004;2023-02-20T13:53:47;100059.81;;;22.22;74.00
24390;BME280;12510;56.468;-3.004;2023-02-20T13:56:20;100059.91;;;21.66;76.69
24390;BME280;12510;56.468;-3.004;2023-02-20T13:58:48;100057.56;;;20.82;78.29
24390;BME280;12510;56.468;-3.004;2023-02-20T14:01:15;100063.38;;;21.85;78.45
24390;BME280;12510;56.468;-3.004;2023-02-20T14:03:42;100050.44;;;22.73;72.80
24390;BME280;12510;56.468;-3.004;2023-02-20T14:08:43;100040.22;;;23.82;64.39
24390;BME280;12510;56.468;-3.004;2023-02-20T14:11:11;100067.47;;;20.11;78.86
24390;BME280;12510;56.468;-3.004;2023-02-20T14:13:40;100067.66;;;20.48;82.46
24390;BME280;12510;56.468;-3.004;2023-02-20T14:19:25;100051.88;;;20.97;86.74
24390;BME280;12510;56.468;-3.004;2023-02-20T14:21:53;100063.38;;;20.02;82.95
24390;BME280;12510;56.468;-3.004;2023-02-20T14:24:27;100054.38;;;19.96;84.39
24390;BME280;12510;56.468;-3.004;2023-02-20T14:26:54;100059.44;;;20.50;81.56
24390;BME280;12510;56.468;-3.004;2023-02-20T14:29:29;100061.97;;;20.38;80.78
24390;BME280;12510;56.468;-3.004;2023-02-20T14:31:58;100072.50;;;19.81;84.30
24390;BME280;12510;56.468;-3.004;2023-02-20T14:40:02;100080.06;;;19.90;85.28
24390;BME280;12510;56.468;-3.004;2023-02-20T14:42:33;100076.03;;;20.20;83.43
24390;BME280;12510;56.468;-3.004;2023-02-20T14:45:04;100078.56;;;20.47;84.03
24390;BME280;12510;56.468;-3.004;2023-02-20T14:47:31;100076.41;;;20.30;78.97
24390;BME280;12510;56.468;-3.004;2023-02-20T14:50:31;100078.47;;;21.17;78.23
24390;BME280;12510;56.468;-3.004;2023-02-20T14:53:13;100076.28;;;21.58;75.79
24390;BME280;12510;56.468;-3.004;2023-02-20T14:55:40;100076.94;;;21.28;78.54
24390;BME280;12510;56.468;-3.004;2023-02-20T14:58:12;100079.03;;;21.26;78.88
24390;BME280;12510;56.468;-3.004;2023-02-20T15:00:39;100079.66;;;21.47;76.60